RPi & Temperatures at JO21ut

Last graph updates: Thursday 02 April 2020 07:56 CEST

Sunrise: 07:06 & Sunset: 20:14 The Sun is currently visible at an elevation of 8.82 degrees and azimut of 93 and 149573261 Km from the Earth
Moonrise: 12:34 & Moonset: 4:38 Quarter Moon The Moon is 377563 Km from the Earth
Find here more details on MARS.

08:11:02 up 1 day, 12:15, 0 users, load average: 1.22, 1.18, 1.05
Current CPU frequency is: 1000 Mhz
Current GPU temperature: 29.324°C
Current inside temperature is 18.7°C with a humidity of 56.6%
Second inside temperature is 19.2°C with a pressure of 1012.27 Hpa (29.66 inHg) and an uncorrected altitude of 8.16 m
ds18b20 now showing 18.9°C

All the sensors I use, DHT22 | BMP085 | MPU6050 | BH1750FVI | MMA7455 | HMC5883L | MPL3115A2 | DS1307 | HTU21 | AM2321 | DS3231 | INA219 | LM75A , and it's current readout can be viewed here please be patient as it needs to read all sensors data. The page loads after about 10 seconds. In our forum more details can be found such as the used software/sources. Feel free to add yours also..


Pressure BMP085
Pressure BMP085
Pressure BMP085
Pressure BMP085
PI CPU Temp
Inet Volkel temp
Inside temp BMP085
Humidity BMP085
PI CPU Temp
Inet Volkel temp
Inside temp BMP085
Humidity BMP085
PI CPU Temp
Inet Volkel temp
Inside temp BMP085
Humidity BMP085
PI CPU Temp
Inet Volkel temp
Inside temp BMP085
Humidity BMP085
PI CPU Temp
Inet Volkel temp
Inside temp BMP085
Humidity BMP085
Inside light BH1750FV
Inside light BH1750FV
Inside light BH1750FV
Inside light BH1750FV
Inside light BH1750FV
Inside light BH1750FV
Sunlight hours
 

Sun & Moon position graph 
Created with jpgraph 4.2.11


Wijchen weather

Weer Widget
ScreenSaver yr.no

Sun Moon Earth


EHEH 020608Z AUTO 22004KT 9000 BR NCD M01/M01 Q1016 BLU 23004KT 8000 BR NSC TEMPO 2500 BR MIFG EHEH 020608Z AUTO 22004KT 9000 BR NCD M01/M01 Q1016 BLU 23004KT 8000 BR NSC TEMPO 2500 BR MIFG EHEH 020608Z AUTO 22004KT 9000 BR NCD M01/M01 Q1016 BLU 23004KT 8000 BR NSC TEMPO 2500 BR MIFG

Weather data from Volkel [NL] EHVK


3 minutes ago, at 06:08 UTC, the wind was calm in Volkel [EHVK], Netherlands. The temperature was -1 °C (30 °F) with a dewpoint of -1 °C (30 °F), and the pressure was 1,016 hPa (30.00 inHg). The relative humidity was 100.0%. . The visibility was 8.0 kilometers (5.0 miles). Current weather is Moderate Mist Moderate Mist .




View code:

Contact me  |  My Raspberry PI forum